sensor_id;sensor_type;location;lat;lon;timestamp;P1;durP1;ratioP1;P2;durP2;ratioP2
12869;SDS011;6503;48.572;13.460;2023-07-20T00:24:22;8.70;;;4.20;;
12869;SDS011;6503;48.572;13.460;2023-07-20T00:26:52;6.75;;;4.38;;
12869;SDS011;6503;48.572;13.460;2023-07-20T00:29:39;7.65;;;4.10;;
12869;SDS011;6503;48.572;13.460;2023-07-20T00:32:10;8.30;;;4.60;;
12869;SDS011;6503;48.572;13.460;2023-07-20T00:34:41;7.35;;;3.95;;
12869;SDS011;6503;48.572;13.460;2023-07-20T00:37:10;6.57;;;4.55;;
12869;SDS011;6503;48.572;13.460;2023-07-20T00:39:40;8.67;;;4.57;;
12869;SDS011;6503;48.572;13.460;2023-07-20T00:42:08;6.78;;;4.00;;
12869;SDS011;6503;48.572;13.460;2023-07-20T00:44:36;7.57;;;4.15;;
12869;SDS011;6503;48.572;13.460;2023-07-20T00:47:08;6.65;;;4.45;;
12869;SDS011;6503;48.572;13.460;2023-07-20T00:49:51;7.57;;;4.10;;
12869;SDS011;6503;48.572;13.460;2023-07-20T00:52:35;8.52;;;4.50;;
12869;SDS011;6503;48.572;13.460;2023-07-20T00:55:08;11.30;;;4.63;;
12869;SDS011;6503;48.572;13.460;2023-07-20T00:57:37;9.05;;;4.78;;
12869;SDS011;6503;48.572;13.460;2023-07-20T01:00:06;6.57;;;4.40;;
12869;SDS011;6503;48.572;13.460;2023-07-20T01:02:46;8.82;;;4.35;;
12869;SDS011;6503;48.572;13.460;2023-07-20T01:05:14;7.35;;;4.72;;
12869;SDS011;6503;48.572;13.460;2023-07-20T01:07:50;8.40;;;5.00;;
12869;SDS011;6503;48.572;13.460;2023-07-20T01:10:24;9.15;;;4.75;;
12869;SDS011;6503;48.572;13.460;2023-07-20T01:12:53;7.30;;;4.30;;
12869;SDS011;6503;48.572;13.460;2023-07-20T01:15:24;7.50;;;4.60;;
12869;SDS011;6503;48.572;13.460;2023-07-20T01:17:57;7.35;;;4.65;;
12869;SDS011;6503;48.572;13.460;2023-07-20T01:20:33;11.23;;;4.95;;
12869;SDS011;6503;48.572;13.460;2023-07-20T01:23:12;7.23;;;4.67;;
12869;SDS011;6503;48.572;13.460;2023-07-20T01:26:01;8.13;;;4.13;;
12869;SDS011;6503;48.572;13.460;2023-07-20T01:28:43;7.97;;;4.78;;
12869;SDS011;6503;48.572;13.460;2023-07-20T01:31:19;8.32;;;4.28;;
12869;SDS011;6503;48.572;13.460;2023-07-20T01:33:58;8.20;;;4.68;;
12869;SDS011;6503;48.572;13.460;2023-07-20T01:36:35;5.93;;;4.03;;
12869;SDS011;6503;48.572;13.460;2023-07-20T01:39:05;6.20;;;3.88;;
12869;SDS011;6503;48.572;13.460;2023-07-20T01:41:33;6.63;;;4.38;;
12869;SDS011;6503;48.572;13.460;2023-07-20T01:44:06;7.00;;;5.25;;
12869;SDS011;6503;48.572;13.460;2023-07-20T01:46:38;6.32;;;4.38;;
12869;SDS011;6503;48.572;13.460;2023-07-20T01:49:08;8.60;;;4.18;;
12869;SDS011;6503;48.572;13.460;2023-07-20T01:51:43;10.88;;;4.95;;
12869;SDS011;6503;48.572;13.460;2023-07-20T01:54:14;9.57;;;4.40;;
12869;SDS011;6503;48.572;13.460;2023-07-20T01:56:48;8.50;;;5.07;;
12869;SDS011;6503;48.572;13.460;2023-07-20T01:59:16;6.82;;;4.10;;
12869;SDS011;6503;48.572;13.460;2023-07-20T02:01:51;7.40;;;4.10;;
12869;SDS011;6503;48.572;13.460;2023-07-20T02:04:23;6.35;;;4.20;;
12869;SDS011;6503;48.572;13.460;2023-07-20T02:06:51;8.50;;;4.53;;
12869;SDS011;6503;48.572;13.460;2023-07-20T02:09:21;7.53;;;4.28;;
12869;SDS011;6503;48.572;13.460;2023-07-20T02:11:51;7.75;;;5.10;;
12869;SDS011;6503;48.572;13.460;2023-07-20T02:14:18;7.82;;;4.85;;
12869;SDS011;6503;48.572;13.460;2023-07-20T02:16:54;7.65;;;4.28;;
12869;SDS011;6503;48.572;13.460;2023-07-20T02:19:26;8.55;;;4.72;;
12869;SDS011;6503;48.572;13.460;2023-07-20T02:22:02;9.02;;;4.20;;
12869;SDS011;6503;48.572;13.460;2023-07-20T02:24:30;12.40;;;5.07;;
12869;SDS011;6503;48.572;13.460;2023-07-20T02:26:58;5.68;;;4.07;;
12869;SDS011;6503;48.572;13.460;2023-07-20T02:29:29;6.55;;;4.70;;
12869;SDS011;6503;48.572;13.460;2023-07-20T02:31:59;7.80;;;4.53;;
12869;SDS011;6503;48.572;13.460;2023-07-20T02:34:27;7.05;;;4.13;;
12869;SDS011;6503;48.572;13.460;2023-07-20T02:37:03;6.43;;;4.40;;
12869;SDS011;6503;48.572;13.460;2023-07-20T02:39:31;6.65;;;4.15;;
12869;SDS011;6503;48.572;13.460;2023-07-20T02:42:00;5.45;;;4.20;;
12869;SDS011;6503;48.572;13.460;2023-07-20T02:44:28;6.90;;;4.00;;
12869;SDS011;6503;48.572;13.460;2023-07-20T02:47:02;5.82;;;4.28;;
12869;SDS011;6503;48.572;13.460;2023-07-20T02:49:30;6.65;;;4.10;;
12869;SDS011;6503;48.572;13.460;2023-07-20T02:52:02;5.38;;;4.13;;
12869;SDS011;6503;48.572;13.460;2023-07-20T02:54:31;6.25;;;4.30;;
12869;SDS011;6503;48.572;13.460;2023-07-20T02:57:03;8.10;;;4.88;;
12869;SDS011;6503;48.572;13.460;2023-07-20T02:59:31;7.88;;;4.40;;
12869;SDS011;6503;48.572;13.460;2023-07-20T03:02:03;8.32;;;4.30;;
12869;SDS011;6503;48.572;13.460;2023-07-20T03:04:36;9.52;;;5.05;;
12869;SDS011;6503;48.572;13.460;2023-07-20T03:07:05;9.05;;;5.00;;
12869;SDS011;6503;48.572;13.460;2023-07-20T03:09:39;7.60;;;4.20;;
12869;SDS011;6503;48.572;13.460;2023-07-20T03:12:13;5.70;;;4.00;;
12869;SDS011;6503;48.572;13.460;2023-07-20T03:14:50;7.07;;;3.87;;
12869;SDS011;6503;48.572;13.460;2023-07-20T03:17:27;6.07;;;3.85;;
12869;SDS011;6503;48.572;13.460;2023-07-20T03:19:57;6.00;;;4.05;;
12869;SDS011;6503;48.572;13.460;2023-07-20T03:22:25;6.70;;;3.80;;
12869;SDS011;6503;48.572;13.460;2023-07-20T03:24:55;9.82;;;4.15;;
12869;SDS011;6503;48.572;13.460;2023-07-20T03:27:23;9.38;;;4.25;;
12869;SDS011;6503;48.572;13.460;2023-07-20T03:29:51;6.47;;;3.90;;
12869;SDS011;6503;48.572;13.460;2023-07-20T03:34:50;7.70;;;4.50;;
12869;SDS011;6503;48.572;13.460;2023-07-20T03:37:17;7.10;;;4.20;;
12869;SDS011;6503;48.572;13.460;2023-07-20T03:39:47;8.77;;;4.65;;
12869;SDS011;6503;48.572;13.460;2023-07-20T03:42:15;5.53;;;4.30;;
12869;SDS011;6503;48.572;13.460;2023-07-20T03:44:43;8.02;;;4.00;;
12869;SDS011;6503;48.572;13.460;2023-07-20T03:47:11;5.65;;;3.78;;
12869;SDS011;6503;48.572;13.460;2023-07-20T03:49:40;5.90;;;4.35;;
12869;SDS011;6503;48.572;13.460;2023-07-20T03:52:10;6.93;;;3.90;;
12869;SDS011;6503;48.572;13.460;2023-07-20T03:54:38;8.18;;;4.22;;
12869;SDS011;6503;48.572;13.460;2023-07-20T03:57:10;6.97;;;3.85;;
12869;SDS011;6503;48.572;13.460;2023-07-20T03:59:38;7.60;;;4.18;;
12869;SDS011;6503;48.572;13.460;2023-07-20T04:02:15;5.93;;;4.07;;
12869;SDS011;6503;48.572;13.460;2023-07-20T04:04:45;6.90;;;4.23;;
12869;SDS011;6503;48.572;13.460;2023-07-20T04:07:16;7.93;;;4.60;;
12869;SDS011;6503;48.572;13.460;2023-07-20T04:09:44;8.23;;;4.30;;
12869;SDS011;6503;48.572;13.460;2023-07-20T04:12:12;4.93;;;3.55;;
12869;SDS011;6503;48.572;13.460;2023-07-20T04:14:40;5.95;;;4.20;;
12869;SDS011;6503;48.572;13.460;2023-07-20T04:17:10;6.60;;;3.80;;
12869;SDS011;6503;48.572;13.460;2023-07-20T04:19:38;5.72;;;4.13;;
12869;SDS011;6503;48.572;13.460;2023-07-20T04:22:06;6.28;;;4.40;;
12869;SDS011;6503;48.572;13.460;2023-07-20T04:24:36;8.40;;;4.70;;
12869;SDS011;6503;48.572;13.460;2023-07-20T04:27:04;11.70;;;6.18;;
12869;SDS011;6503;48.572;13.460;2023-07-20T04:29:32;6.15;;;4.85;;
12869;SDS011;6503;48.572;13.460;2023-07-20T04:32:00;8.82;;;4.82;;
12869;SDS011;6503;48.572;13.460;2023-07-20T04:34:32;6.57;;;4.43;;
12869;SDS011;6503;48.572;13.460;2023-07-20T04:37:02;8.40;;;4.82;;
12869;SDS011;6503;48.572;13.460;2023-07-20T04:39:31;7.22;;;4.70;;
12869;SDS011;6503;48.572;13.460;2023-07-20T04:42:02;8.65;;;4.72;;
12869;SDS011;6503;48.572;13.460;2023-07-20T04:47:26;6.97;;;4.70;;
12869;SDS011;6503;48.572;13.460;2023-07-20T04:49:54;8.88;;;4.22;;
12869;SDS011;6503;48.572;13.460;2023-07-20T04:52:38;6.88;;;4.35;;
12869;SDS011;6503;48.572;13.460;2023-07-20T04:55:06;6.65;;;4.05;;
12869;SDS011;6503;48.572;13.460;2023-07-20T04:57:38;7.57;;;4.68;;
12869;SDS011;6503;48.572;13.460;2023-07-20T05:03:17;7.47;;;3.90;;
12869;SDS011;6503;48.572;13.460;2023-07-20T05:05:50;6.43;;;4.13;;
12869;SDS011;6503;48.572;13.460;2023-07-20T05:17:41;5.88;;;3.88;;
12869;SDS011;6503;48.572;13.460;2023-07-20T05:20:31;7.07;;;4.00;;
12869;SDS011;6503;48.572;13.460;2023-07-20T05:23:35;9.70;;;4.00;;
12869;SDS011;6503;48.572;13.460;2023-07-20T05:26:16;7.10;;;4.40;;
12869;SDS011;6503;48.572;13.460;2023-07-20T05:28:47;5.63;;;3.97;;
12869;SDS011;6503;48.572;13.460;2023-07-20T05:31:34;7.90;;;4.03;;
12869;SDS011;6503;48.572;13.460;2023-07-20T05:37:43;8.00;;;4.03;;
12869;SDS011;6503;48.572;13.460;2023-07-20T05:40:41;5.65;;;3.92;;
12869;SDS011;6503;48.572;13.460;2023-07-20T05:46:40;10.05;;;4.18;;
12869;SDS011;6503;48.572;13.460;2023-07-20T05:49:24;7.18;;;4.20;;
12869;SDS011;6503;48.572;13.460;2023-07-20T05:51:52;6.53;;;3.40;;
12869;SDS011;6503;48.572;13.460;2023-07-20T05:54:23;5.28;;;3.50;;
12869;SDS011;6503;48.572;13.460;2023-07-20T05:57:07;5.38;;;3.55;;
12869;SDS011;6503;48.572;13.460;2023-07-20T05:59:44;6.95;;;4.10;;
12869;SDS011;6503;48.572;13.460;2023-07-20T06:02:18;7.70;;;3.70;;
12869;SDS011;6503;48.572;13.460;2023-07-20T06:04:48;6.07;;;3.63;;
12869;SDS011;6503;48.572;13.460;2023-07-20T06:07:41;8.40;;;4.18;;
12869;SDS011;6503;48.572;13.460;2023-07-20T06:10:18;7.50;;;3.80;;
12869;SDS011;6503;48.572;13.460;2023-07-20T06:12:45;7.55;;;4.03;;
12869;SDS011;6503;48.572;13.460;2023-07-20T06:15:31;9.20;;;3.83;;
12869;SDS011;6503;48.572;13.460;2023-07-20T06:18:15;7.40;;;4.10;;
12869;SDS011;6503;48.572;13.460;2023-07-20T06:20:57;7.35;;;4.18;;
12869;SDS011;6503;48.572;13.460;2023-07-20T06:23:24;9.13;;;4.30;;
12869;SDS011;6503;48.572;13.460;2023-07-20T06:25:57;7.72;;;3.50;;
12869;SDS011;6503;48.572;13.460;2023-07-20T06:28:28;6.25;;;3.85;;
12869;SDS011;6503;48.572;13.460;2023-07-20T06:30:59;7.22;;;4.07;;
12869;SDS011;6503;48.572;13.460;2023-07-20T06:33:26;7.85;;;3.75;;
12869;SDS011;6503;48.572;13.460;2023-07-20T06:35:57;5.78;;;3.50;;
12869;SDS011;6503;48.572;13.460;2023-07-20T06:38:41;6.40;;;3.33;;
12869;SDS011;6503;48.572;13.460;2023-07-20T06:41:20;7.47;;;3.20;;
12869;SDS011;6503;48.572;13.460;2023-07-20T06:46:52;7.53;;;3.60;;
12869;SDS011;6503;48.572;13.460;2023-07-20T06:49:29;7.05;;;3.30;;
12869;SDS011;6503;48.572;13.460;2023-07-20T06:52:01;6.55;;;3.40;;
12869;SDS011;6503;48.572;13.460;2023-07-20T06:54:43;5.47;;;3.50;;
12869;SDS011;6503;48.572;13.460;2023-07-20T06:57:21;8.15;;;3.22;;
12869;SDS011;6503;48.572;13.460;2023-07-20T06:59:55;8.13;;;3.58;;
12869;SDS011;6503;48.572;13.460;2023-07-20T07:02:24;6.18;;;3.35;;
12869;SDS011;6503;48.572;13.460;2023-07-20T07:05:36;5.43;;;3.17;;
12869;SDS011;6503;48.572;13.460;2023-07-20T07:08:05;5.35;;;2.80;;
12869;SDS011;6503;48.572;13.460;2023-07-20T07:10:39;7.35;;;2.88;;
12869;SDS011;6503;48.572;13.460;2023-07-20T07:16:22;6.43;;;2.90;;
12869;SDS011;6503;48.572;13.460;2023-07-20T07:18:51;4.97;;;2.63;;
12869;SDS011;6503;48.572;13.460;2023-07-20T07:23:57;4.53;;;2.95;;
12869;SDS011;6503;48.572;13.460;2023-07-20T07:24:33;6.00;;;2.58;;
12869;SDS011;6503;48.572;13.460;2023-07-20T07:27:01;7.28;;;2.70;;
12869;SDS011;6503;48.572;13.460;2023-07-20T07:29:46;6.57;;;2.65;;
12869;SDS011;6503;48.572;13.460;2023-07-20T07:35:15;6.45;;;2.85;;
12869;SDS011;6503;48.572;13.460;2023-07-20T07:37:43;3.92;;;2.30;;
12869;SDS011;6503;48.572;13.460;2023-07-20T07:40:12;3.67;;;2.40;;
12869;SDS011;6503;48.572;13.460;2023-07-20T07:42:39;7.05;;;2.22;;
12869;SDS011;6503;48.572;13.460;2023-07-20T07:45:07;4.43;;;2.28;;
12869;SDS011;6503;48.572;13.460;2023-07-20T07:47:36;3.10;;;2.10;;
12869;SDS011;6503;48.572;13.460;2023-07-20T07:56:43;3.35;;;2.38;;
12869;SDS011;6503;48.572;13.460;2023-07-20T07:59:16;5.18;;;2.47;;
12869;SDS011;6503;48.572;13.460;2023-07-20T08:01:45;3.75;;;2.03;;
12869;SDS011;6503;48.572;13.460;2023-07-20T08:04:26;4.97;;;2.20;;
12869;SDS011;6503;48.572;13.460;2023-07-20T08:07:10;4.65;;;2.25;;
12869;SDS011;6503;48.572;13.460;2023-07-20T08:10:04;5.30;;;4.00;;
12869;SDS011;6503;48.572;13.460;2023-07-20T08:24:47;4.15;;;2.03;;
12869;SDS011;6503;48.572;13.460;2023-07-20T08:27:15;6.32;;;2.80;;
12869;SDS011;6503;48.572;13.460;2023-07-20T08:29:54;6.00;;;2.20;;
12869;SDS011;6503;48.572;13.460;2023-07-20T08:32:40;3.38;;;2.10;;
12869;SDS011;6503;48.572;13.460;2023-07-20T08:35:08;3.60;;;2.00;;
12869;SDS011;6503;48.572;13.460;2023-07-20T08:37:44;4.90;;;2.10;;
12869;SDS011;6503;48.572;13.460;2023-07-20T08:43:36;3.85;;;2.25;;
12869;SDS011;6503;48.572;13.460;2023-07-20T08:46:14;6.03;;;2.03;;
12869;SDS011;6503;48.572;13.460;2023-07-20T08:48:44;3.78;;;2.40;;
12869;SDS011;6503;48.572;13.460;2023-07-20T08:51:12;3.65;;;1.95;;
12869;SDS011;6503;48.572;13.460;2023-07-20T08:53:54;4.10;;;2.45;;
12869;SDS011;6503;48.572;13.460;2023-07-20T08:56:30;2.83;;;2.00;;
12869;SDS011;6503;48.572;13.460;2023-07-20T08:59:03;4.78;;;2.25;;
12869;SDS011;6503;48.572;13.460;2023-07-20T09:02:07;3.40;;;2.25;;
12869;SDS011;6503;48.572;13.460;2023-07-20T09:04:36;4.15;;;2.30;;
12869;SDS011;6503;48.572;13.460;2023-07-20T09:07:08;4.38;;;2.25;;
12869;SDS011;6503;48.572;13.460;2023-07-20T09:12:31;5.68;;;2.40;;
12869;SDS011;6503;48.572;13.460;2023-07-20T09:32:51;3.20;;;1.90;;
12869;SDS011;6503;48.572;13.460;2023-07-20T09:35:45;3.08;;;2.15;;
12869;SDS011;6503;48.572;13.460;2023-07-20T09:38:13;6.28;;;2.30;;
12869;SDS011;6503;48.572;13.460;2023-07-20T09:40:51;4.13;;;2.33;;
12869;SDS011;6503;48.572;13.460;2023-07-20T09:43:30;4.35;;;2.60;;
12869;SDS011;6503;48.572;13.460;2023-07-20T09:54:38;4.07;;;2.22;;
12869;SDS011;6503;48.572;13.460;2023-07-20T09:57:43;3.83;;;1.88;;
12869;SDS011;6503;48.572;13.460;2023-07-20T10:00:18;3.95;;;2.15;;
12869;SDS011;6503;48.572;13.460;2023-07-20T10:03:11;2.47;;;1.92;;
12869;SDS011;6503;48.572;13.460;2023-07-20T10:06:15;5.25;;;2.60;;
12869;SDS011;6503;48.572;13.460;2023-07-20T10:08:52;4.18;;;2.15;;
12869;SDS011;6503;48.572;13.460;2023-07-20T10:18:09;4.43;;;2.53;;
12869;SDS011;6503;48.572;13.460;2023-07-20T10:20:57;5.00;;;2.25;;
12869;SDS011;6503;48.572;13.460;2023-07-20T10:23:56;4.93;;;2.45;;
12869;SDS011;6503;48.572;13.460;2023-07-20T10:26:46;3.90;;;2.58;;
12869;SDS011;6503;48.572;13.460;2023-07-20T11:00:38;4.47;;;2.15;;
12869;SDS011;6503;48.572;13.460;2023-07-20T11:03:56;5.43;;;2.45;;
12869;SDS011;6503;48.572;13.460;2023-07-20T11:06:43;3.45;;;2.05;;
12869;SDS011;6503;48.572;13.460;2023-07-20T11:12:19;2.85;;;1.88;;
12869;SDS011;6503;48.572;13.460;2023-07-20T11:39:06;3.05;;;1.80;;
12869;SDS011;6503;48.572;13.460;2023-07-20T11:41:55;4.82;;;1.80;;
12869;SDS011;6503;48.572;13.460;2023-07-20T11:45:02;3.38;;;1.58;;
12869;SDS011;6503;48.572;13.460;2023-07-20T11:50:51;5.03;;;2.10;;
12869;SDS011;6503;48.572;13.460;2023-07-20T11:53:32;3.17;;;1.90;;
12869;SDS011;6503;48.572;13.460;2023-07-20T11:59:25;2.40;;;1.70;;
12869;SDS011;6503;48.572;13.460;2023-07-20T12:05:18;5.18;;;1.90;;
12869;SDS011;6503;48.572;13.460;2023-07-20T12:10:38;3.42;;;1.60;;
12869;SDS011;6503;48.572;13.460;2023-07-20T12:13:38;2.38;;;1.83;;
12869;SDS011;6503;48.572;13.460;2023-07-20T12:22:51;3.47;;;1.60;;
12869;SDS011;6503;48.572;13.460;2023-07-20T12:25:41;2.75;;;1.55;;
12869;SDS011;6503;48.572;13.460;2023-07-20T12:28:16;2.70;;;1.45;;
12869;SDS011;6503;48.572;13.460;2023-07-20T12:30:44;2.42;;;1.55;;
12869;SDS011;6503;48.572;13.460;2023-07-20T12:33:41;2.40;;;1.73;;
12869;SDS011;6503;48.572;13.460;2023-07-20T12:37:15;2.33;;;1.60;;
12869;SDS011;6503;48.572;13.460;2023-07-20T12:48:44;4.13;;;1.88;;
12869;SDS011;6503;48.572;13.460;2023-07-20T12:51:27;3.03;;;1.50;;
12869;SDS011;6503;48.572;13.460;2023-07-20T12:54:00;3.85;;;1.70;;
12869;SDS011;6503;48.572;13.460;2023-07-20T12:56:59;3.45;;;1.67;;
12869;SDS011;6503;48.572;13.460;2023-07-20T13:02:23;2.50;;;1.65;;
12869;SDS011;6503;48.572;13.460;2023-07-20T13:11:30;3.70;;;1.83;;
12869;SDS011;6503;48.572;13.460;2023-07-20T13:14:36;3.10;;;1.98;;
12869;SDS011;6503;48.572;13.460;2023-07-20T13:17:50;4.45;;;1.80;;
12869;SDS011;6503;48.572;13.460;2023-07-20T13:20:37;3.70;;;1.90;;
12869;SDS011;6503;48.572;13.460;2023-07-20T13:26:08;3.80;;;1.98;;
12869;SDS011;6503;48.572;13.460;2023-07-20T13:32:06;2.50;;;1.65;;
12869;SDS011;6503;48.572;13.460;2023-07-20T13:34:40;3.78;;;1.92;;
12869;SDS011;6503;48.572;13.460;2023-07-20T13:37:17;1.83;;;1.40;;
12869;SDS011;6503;48.572;13.460;2023-07-20T13:43:19;4.00;;;1.60;;
12869;SDS011;6503;48.572;13.460;2023-07-20T13:49:21;3.22;;;1.73;;
12869;SDS011;6503;48.572;13.460;2023-07-20T13:51:49;3.33;;;1.30;;
12869;SDS011;6503;48.572;13.460;2023-07-20T13:54:17;2.50;;;1.70;;
12869;SDS011;6503;48.572;13.460;2023-07-20T13:57:03;2.95;;;1.48;;
12869;SDS011;6503;48.572;13.460;2023-07-20T13:59:56;3.45;;;1.80;;
12869;SDS011;6503;48.572;13.460;2023-07-20T14:05:29;7.15;;;2.80;;
12869;SDS011;6503;48.572;13.460;2023-07-20T14:08:26;2.95;;;1.60;;
12869;SDS011;6503;48.572;13.460;2023-07-20T14:11:18;2.00;;;1.48;;
12869;SDS011;6503;48.572;13.460;2023-07-20T14:13:59;3.22;;;1.50;;
12869;SDS011;6503;48.572;13.460;2023-07-20T14:16:49;3.65;;;2.03;;
12869;SDS011;6503;48.572;13.460;2023-07-20T14:27:27;2.25;;;1.58;;
12869;SDS011;6503;48.572;13.460;2023-07-20T14:37:40;4.05;;;1.80;;
12869;SDS011;6503;48.572;13.460;2023-07-20T14:48:46;2.60;;;1.50;;
12869;SDS011;6503;48.572;13.460;2023-07-20T14:51:20;5.93;;;1.70;;
12869;SDS011;6503;48.572;13.460;2023-07-20T14:57:20;2.75;;;1.63;;
12869;SDS011;6503;48.572;13.460;2023-07-20T15:00:01;2.40;;;1.70;;
12869;SDS011;6503;48.572;13.460;2023-07-20T15:02:56;2.42;;;1.38;;
12869;SDS011;6503;48.572;13.460;2023-07-20T15:05:26;3.80;;;1.98;;
12869;SDS011;6503;48.572;13.460;2023-07-20T15:38:43;2.78;;;1.50;;
12869;SDS011;6503;48.572;13.460;2023-07-20T15:41:39;5.10;;;1.20;;
12869;SDS011;6503;48.572;13.460;2023-07-20T15:47:44;2.90;;;1.65;;
12869;SDS011;6503;48.572;13.460;2023-07-20T15:50:31;3.72;;;1.50;;
12869;SDS011;6503;48.572;13.460;2023-07-20T16:05:16;2.17;;;1.65;;
12869;SDS011;6503;48.572;13.460;2023-07-20T16:13:51;3.05;;;2.20;;
12869;SDS011;6503;48.572;13.460;2023-07-20T16:16:35;2.83;;;1.60;;
12869;SDS011;6503;48.572;13.460;2023-07-20T16:19:25;3.35;;;1.85;;
12869;SDS011;6503;48.572;13.460;2023-07-20T16:27:49;6.53;;;1.40;;
12869;SDS011;6503;48.572;13.460;2023-07-20T16:30:17;3.35;;;1.63;;
12869;SDS011;6503;48.572;13.460;2023-07-20T16:33:14;4.57;;;1.60;;
12869;SDS011;6503;48.572;13.460;2023-07-20T16:35:43;2.67;;;1.45;;
12869;SDS011;6503;48.572;13.460;2023-07-20T16:38:11;3.20;;;1.70;;
12869;SDS011;6503;48.572;13.460;2023-07-20T16:40:56;6.80;;;2.40;;
12869;SDS011;6503;48.572;13.460;2023-07-20T16:43:39;4.60;;;1.70;;
12869;SDS011;6503;48.572;13.460;2023-07-20T16:46:32;2.83;;;1.20;;
12869;SDS011;6503;48.572;13.460;2023-07-20T16:49:29;2.05;;;1.15;;
12869;SDS011;6503;48.572;13.460;2023-07-20T16:51:56;2.33;;;1.40;;
12869;SDS011;6503;48.572;13.460;2023-07-20T16:54:24;4.18;;;1.50;;
12869;SDS011;6503;48.572;13.460;2023-07-20T16:56:51;6.15;;;1.50;;
12869;SDS011;6503;48.572;13.460;2023-07-20T16:59:21;2.17;;;1.40;;
12869;SDS011;6503;48.572;13.460;2023-07-20T17:01:48;5.95;;;1.55;;
12869;SDS011;6503;48.572;13.460;2023-07-20T17:04:17;3.65;;;1.40;;
12869;SDS011;6503;48.572;13.460;2023-07-20T17:06:44;3.45;;;1.73;;
12869;SDS011;6503;48.572;13.460;2023-07-20T17:09:12;4.32;;;1.83;;
12869;SDS011;6503;48.572;13.460;2023-07-20T17:11:40;3.60;;;1.60;;
12869;SDS011;6503;48.572;13.460;2023-07-20T17:14:08;4.30;;;1.70;;
12869;SDS011;6503;48.572;13.460;2023-07-20T17:16:37;3.90;;;1.48;;
12869;SDS011;6503;48.572;13.460;2023-07-20T17:19:18;5.38;;;1.73;;
12869;SDS011;6503;48.572;13.460;2023-07-20T17:22:11;1.95;;;1.15;;
12869;SDS011;6503;48.572;13.460;2023-07-20T17:27:31;2.53;;;1.10;;
12869;SDS011;6503;48.572;13.460;2023-07-20T17:29:59;2.60;;;1.10;;
12869;SDS011;6503;48.572;13.460;2023-07-20T17:32:28;2.28;;;1.40;;
12869;SDS011;6503;48.572;13.460;2023-07-20T17:34:56;3.72;;;1.90;;
12869;SDS011;6503;48.572;13.460;2023-07-20T17:37:23;3.72;;;1.60;;
12869;SDS011;6503;48.572;13.460;2023-07-20T17:40:07;3.60;;;1.80;;
12869;SDS011;6503;48.572;13.460;2023-07-20T17:42:35;4.88;;;1.73;;
12869;SDS011;6503;48.572;13.460;2023-07-20T17:45:12;2.35;;;1.48;;
12869;SDS011;6503;48.572;13.460;2023-07-20T17:47:41;2.45;;;1.13;;
12869;SDS011;6503;48.572;13.460;2023-07-20T17:50:14;2.75;;;1.30;;
12869;SDS011;6503;48.572;13.460;2023-07-20T17:52:48;4.75;;;1.50;;
12869;SDS011;6503;48.572;13.460;2023-07-20T17:55:15;3.50;;;1.30;;
12869;SDS011;6503;48.572;13.460;2023-07-20T17:57:48;3.65;;;1.25;;
12869;SDS011;6503;48.572;13.460;2023-07-20T18:00:26;2.63;;;1.30;;
12869;SDS011;6503;48.572;13.460;2023-07-20T18:02:55;3.13;;;1.30;;
12869;SDS011;6503;48.572;13.460;2023-07-20T18:05:34;3.40;;;1.40;;
12869;SDS011;6503;48.572;13.460;2023-07-20T18:08:01;2.85;;;1.42;;
12869;SDS011;6503;48.572;13.460;2023-07-20T18:10:29;3.67;;;1.67;;
12869;SDS011;6503;48.572;13.460;2023-07-20T18:13:05;5.10;;;1.45;;
12869;SDS011;6503;48.572;13.460;2023-07-20T18:15:53;3.30;;;1.65;;
12869;SDS011;6503;48.572;13.460;2023-07-20T18:18:36;2.95;;;1.30;;
12869;SDS011;6503;48.572;13.460;2023-07-20T18:21:03;3.33;;;1.60;;
12869;SDS011;6503;48.572;13.460;2023-07-20T18:23:31;2.67;;;1.70;;
12869;SDS011;6503;48.572;13.460;2023-07-20T18:25:59;3.80;;;1.70;;
12869;SDS011;6503;48.572;13.460;2023-07-20T18:28:27;4.22;;;2.28;;
12869;SDS011;6503;48.572;13.460;2023-07-20T18:31:03;6.72;;;3.50;;
12869;SDS011;6503;48.572;13.460;2023-07-20T18:33:33;4.22;;;2.38;;
12869;SDS011;6503;48.572;13.460;2023-07-20T18:36:09;6.35;;;2.80;;
12869;SDS011;6503;48.572;13.460;2023-07-20T18:38:37;2.75;;;2.10;;
12869;SDS011;6503;48.572;13.460;2023-07-20T18:41:04;5.07;;;2.30;;
12869;SDS011;6503;48.572;13.460;2023-07-20T18:43:32;7.40;;;2.75;;
12869;SDS011;6503;48.572;13.460;2023-07-20T18:46:06;6.85;;;1.85;;
12869;SDS011;6503;48.572;13.460;2023-07-20T18:48:35;6.80;;;2.10;;
12869;SDS011;6503;48.572;13.460;2023-07-20T18:51:02;5.47;;;1.70;;
12869;SDS011;6503;48.572;13.460;2023-07-20T18:53:33;5.63;;;2.15;;
12869;SDS011;6503;48.572;13.460;2023-07-20T18:56:03;3.78;;;2.08;;
12869;SDS011;6503;48.572;13.460;2023-07-20T18:58:32;7.00;;;1.90;;
12869;SDS011;6503;48.572;13.460;2023-07-20T19:01:03;6.97;;;1.70;;
12869;SDS011;6503;48.572;13.460;2023-07-20T19:03:35;3.60;;;1.45;;
12869;SDS011;6503;48.572;13.460;2023-07-20T19:06:11;5.28;;;1.70;;
12869;SDS011;6503;48.572;13.460;2023-07-20T19:08:46;4.75;;;1.70;;
12869;SDS011;6503;48.572;13.460;2023-07-20T19:11:14;7.22;;;1.98;;
12869;SDS011;6503;48.572;13.460;2023-07-20T19:13:41;6.95;;;1.50;;
12869;SDS011;6503;48.572;13.460;2023-07-20T19:16:09;3.78;;;1.65;;
12869;SDS011;6503;48.572;13.460;2023-07-20T19:18:57;3.58;;;1.50;;
12869;SDS011;6503;48.572;13.460;2023-07-20T19:21:25;7.10;;;1.70;;
12869;SDS011;6503;48.572;13.460;2023-07-20T19:24:15;2.67;;;1.40;;
12869;SDS011;6503;48.572;13.460;2023-07-20T19:26:55;4.35;;;1.55;;
12869;SDS011;6503;48.572;13.460;2023-07-20T19:29:24;2.90;;;1.60;;
12869;SDS011;6503;48.572;13.460;2023-07-20T19:32:11;2.40;;;1.30;;
12869;SDS011;6503;48.572;13.460;2023-07-20T19:34:57;5.47;;;1.60;;
12869;SDS011;6503;48.572;13.460;2023-07-20T19:37:25;6.45;;;1.67;;
12869;SDS011;6503;48.572;13.460;2023-07-20T19:40:01;2.10;;;1.40;;
12869;SDS011;6503;48.572;13.460;2023-07-20T19:42:30;3.13;;;1.63;;
12869;SDS011;6503;48.572;13.460;2023-07-20T19:44:57;4.47;;;1.65;;
12869;SDS011;6503;48.572;13.460;2023-07-20T19:47:38;4.50;;;1.90;;
12869;SDS011;6503;48.572;13.460;2023-07-20T19:53:00;4.25;;;1.27;;
12869;SDS011;6503;48.572;13.460;2023-07-20T19:55:37;3.88;;;1.65;;
12869;SDS011;6503;48.572;13.460;2023-07-20T19:58:13;3.70;;;1.80;;
12869;SDS011;6503;48.572;13.460;2023-07-20T20:00:42;4.80;;;1.88;;
12869;SDS011;6503;48.572;13.460;2023-07-20T20:03:09;3.08;;;1.88;;
12869;SDS011;6503;48.572;13.460;2023-07-20T20:05:43;2.72;;;1.88;;
12869;SDS011;6503;48.572;13.460;2023-07-20T20:11:15;2.42;;;1.50;;
12869;SDS011;6503;48.572;13.460;2023-07-20T20:14:05;3.28;;;1.83;;
12869;SDS011;6503;48.572;13.460;2023-07-20T20:16:33;2.90;;;1.48;;
12869;SDS011;6503;48.572;13.460;2023-07-20T20:19:06;2.63;;;1.70;;
12869;SDS011;6503;48.572;13.460;2023-07-20T20:21:37;2.72;;;1.75;;
12869;SDS011;6503;48.572;13.460;2023-07-20T20:24:05;3.30;;;1.70;;
12869;SDS011;6503;48.572;13.460;2023-07-20T20:26:43;3.40;;;1.50;;
12869;SDS011;6503;48.572;13.460;2023-07-20T20:32:06;4.18;;;1.95;;
12869;SDS011;6503;48.572;13.460;2023-07-20T20:34:49;3.75;;;1.80;;
12869;SDS011;6503;48.572;13.460;2023-07-20T20:37:16;3.67;;;1.83;;
12869;SDS011;6503;48.572;13.460;2023-07-20T20:40:03;3.75;;;2.08;;
12869;SDS011;6503;48.572;13.460;2023-07-20T20:42:32;3.78;;;1.80;;
12869;SDS011;6503;48.572;13.460;2023-07-20T20:45:16;4.15;;;2.28;;
12869;SDS011;6503;48.572;13.460;2023-07-20T20:47:50;3.40;;;2.03;;
12869;SDS011;6503;48.572;13.460;2023-07-20T20:50:31;2.95;;;2.30;;
12869;SDS011;6503;48.572;13.460;2023-07-20T20:53:00;2.67;;;2.22;;
12869;SDS011;6503;48.572;13.460;2023-07-20T20:55:28;3.70;;;2.08;;
12869;SDS011;6503;48.572;13.460;2023-07-20T20:58:11;3.35;;;1.90;;
12869;SDS011;6503;48.572;13.460;2023-07-20T21:00:44;3.53;;;2.03;;
12869;SDS011;6503;48.572;13.460;2023-07-20T21:03:11;3.70;;;2.10;;